createdAt,value
2017-12-26T08:06:45.027Z,985.37
2017-12-26T08:07:45.010Z,985.39
2017-12-26T08:08:45.002Z,985.35
2017-12-26T08:09:45.042Z,985.43
2017-12-26T08:10:44.988Z,985.36
2017-12-26T08:11:44.982Z,985.42
2017-12-26T08:12:44.975Z,985.44
2017-12-26T08:13:44.971Z,985.47
2017-12-26T08:14:44.968Z,985.41
2017-12-26T08:15:44.962Z,985.42
2017-12-26T08:16:44.955Z,985.52
2017-12-26T08:17:44.950Z,985.49
2017-12-26T08:18:44.948Z,985.52
2017-12-26T08:19:44.942Z,985.53
2017-12-26T08:20:44.940Z,985.54
2017-12-26T08:21:44.936Z,985.61
2017-12-26T08:22:44.933Z,985.61
2017-12-26T08:23:44.929Z,985.64
2017-12-26T08:24:44.925Z,985.69
2017-12-26T08:25:44.924Z,985.72
2017-12-26T08:26:44.927Z,985.70
2017-12-26T08:27:44.919Z,985.68
2017-12-26T08:28:44.915Z,985.65
2017-12-26T08:29:44.912Z,985.68
2017-12-26T08:30:44.910Z,985.64
2017-12-26T08:31:44.909Z,985.66
2017-12-26T08:32:44.906Z,985.67
2017-12-26T08:33:44.905Z,985.65
2017-12-26T08:34:44.902Z,985.67
2017-12-26T08:35:44.930Z,985.65
2017-12-26T08:36:44.898Z,985.65
2017-12-26T08:37:44.897Z,985.66
2017-12-26T08:38:44.895Z,985.62
2017-12-26T08:39:44.893Z,985.68
2017-12-26T08:40:44.891Z,985.65
2017-12-26T08:41:44.890Z,985.65
2017-12-26T08:42:44.889Z,985.68
2017-12-26T08:43:44.887Z,985.68
2017-12-26T08:44:44.885Z,985.67
2017-12-26T08:45:44.886Z,985.70
2017-12-26T08:46:44.883Z,985.73
2017-12-26T08:47:44.882Z,985.72
2017-12-26T08:48:44.881Z,985.70
2017-12-26T08:49:44.879Z,985.71
2017-12-26T08:50:44.877Z,985.68
2017-12-26T08:51:44.876Z,985.70
2017-12-26T08:52:44.875Z,985.72
2017-12-26T08:53:44.874Z,985.71
2017-12-26T08:54:44.873Z,985.75
2017-12-26T08:55:44.873Z,985.75
2017-12-26T08:56:44.871Z,985.75
2017-12-26T08:57:44.870Z,985.81
2017-12-26T08:58:44.870Z,985.80
2017-12-26T08:59:44.868Z,985.81
2017-12-26T09:00:44.869Z,985.80
2017-12-26T09:01:44.868Z,985.81
2017-12-26T09:02:44.866Z,985.84
2017-12-26T09:03:44.865Z,985.90
2017-12-26T09:04:44.863Z,985.89
2017-12-26T09:05:44.863Z,985.88
2017-12-26T09:06:44.862Z,985.89
2017-12-26T09:07:44.862Z,985.88
2017-12-26T09:08:44.862Z,985.86
2017-12-26T09:09:44.860Z,985.84
2017-12-26T09:10:44.860Z,985.88
2017-12-26T09:11:44.858Z,985.87
2017-12-26T09:12:44.858Z,985.82
2017-12-26T09:13:44.857Z,985.85
2017-12-26T09:14:44.856Z,985.81
2017-12-26T09:15:44.856Z,985.81
2017-12-26T09:16:44.854Z,985.77
2017-12-26T09:17:44.854Z,985.83
2017-12-26T09:18:44.855Z,985.82
2017-12-26T09:19:44.854Z,985.87
2017-12-26T09:20:44.851Z,985.83
2017-12-26T09:21:44.852Z,985.76
2017-12-26T09:22:44.851Z,985.74
2017-12-26T09:23:44.851Z,985.79
2017-12-26T09:24:44.850Z,985.78
2017-12-26T09:25:44.848Z,985.81
2017-12-26T09:26:44.848Z,985.85
2017-12-26T09:27:44.847Z,985.86
2017-12-26T09:28:44.846Z,985.88
2017-12-26T09:29:44.846Z,985.87
2017-12-26T09:30:44.847Z,985.89
2017-12-26T09:31:44.847Z,985.90
2017-12-26T09:32:44.844Z,985.93
2017-12-26T09:33:44.844Z,985.93
2017-12-26T09:34:44.842Z,985.95
2017-12-26T09:35:44.842Z,985.97
2017-12-26T09:36:44.841Z,985.99
2017-12-26T09:37:44.840Z,985.96
2017-12-26T09:38:44.841Z,985.98
2017-12-26T09:39:44.839Z,986.01
2017-12-26T09:40:44.838Z,986.02
2017-12-26T09:41:44.837Z,986.08
2017-12-26T09:42:44.837Z,986.09
2017-12-26T09:43:44.838Z,986.08
2017-12-26T09:44:44.835Z,986.05
2017-12-26T09:45:44.836Z,986.10
2017-12-26T09:46:44.834Z,986.11
2017-12-26T09:47:44.835Z,986.10
2017-12-26T09:48:44.834Z,986.12
2017-12-26T09:49:44.833Z,986.11
2017-12-26T09:50:44.832Z,986.10
2017-12-26T09:51:44.832Z,986.17
2017-12-26T09:52:44.830Z,986.17
2017-12-26T09:53:44.831Z,986.13
2017-12-26T09:54:44.830Z,986.10
2017-12-26T09:55:44.830Z,986.05
2017-12-26T09:56:44.827Z,986.16
2017-12-26T09:57:44.836Z,986.13
2017-12-26T09:58:44.827Z,986.19
2017-12-26T09:59:44.826Z,986.15
2017-12-26T10:00:44.825Z,986.13
2017-12-26T10:01:44.824Z,986.17
2017-12-26T10:02:44.825Z,986.16
2017-12-26T10:03:44.826Z,986.18
2017-12-26T10:04:44.821Z,986.19
2017-12-26T10:05:44.823Z,986.24
2017-12-26T10:06:44.821Z,986.26
2017-12-26T10:07:44.822Z,986.31
2017-12-26T10:08:44.824Z,986.23
2017-12-26T10:09:44.818Z,986.20
2017-12-26T10:10:44.820Z,986.19
2017-12-26T10:11:44.818Z,986.19
2017-12-26T10:12:44.817Z,986.17
2017-12-26T10:13:44.831Z,986.24
2017-12-26T10:14:44.816Z,986.23
2017-12-26T10:15:44.815Z,986.17
2017-12-26T10:16:44.814Z,986.19
2017-12-26T10:17:44.815Z,986.11
2017-12-26T10:18:44.813Z,986.20
2017-12-26T10:19:44.813Z,986.20
2017-12-26T10:20:44.812Z,986.25
2017-12-26T10:21:44.811Z,986.22
2017-12-26T10:22:44.811Z,986.21
2017-12-26T10:23:44.821Z,986.15
2017-12-26T10:24:44.809Z,986.20
2017-12-26T10:25:44.809Z,986.28
2017-12-26T10:26:44.810Z,986.24
2017-12-26T10:27:44.810Z,986.21
2017-12-26T10:28:44.808Z,986.28
2017-12-26T10:29:44.807Z,986.26
2017-12-26T10:30:44.807Z,986.24
2017-12-26T10:31:44.807Z,986.25
2017-12-26T10:32:44.806Z,986.14
2017-12-26T10:33:44.805Z,986.16
2017-12-26T10:34:44.805Z,986.18
2017-12-26T10:35:44.804Z,986.24
2017-12-26T10:36:44.803Z,986.25
2017-12-26T10:37:44.801Z,986.26
2017-12-26T10:38:44.801Z,986.23
2017-12-26T10:39:44.806Z,986.23
2017-12-26T10:40:44.801Z,986.26
2017-12-26T10:41:44.802Z,986.23
2017-12-26T10:42:44.798Z,986.21
2017-12-26T10:43:44.800Z,986.32
2017-12-26T10:44:44.799Z,986.29
2017-12-26T10:45:44.796Z,986.32
2017-12-26T10:46:44.795Z,986.33
2017-12-26T10:47:44.794Z,986.36
2017-12-26T10:48:44.793Z,986.34
2017-12-26T10:49:44.793Z,986.44
2017-12-26T10:50:44.792Z,986.30
2017-12-26T10:51:44.792Z,986.38
2017-12-26T10:52:44.791Z,986.41
2017-12-26T10:53:44.790Z,986.33
2017-12-26T10:54:44.796Z,986.34
2017-12-26T10:55:44.788Z,986.38
2017-12-26T10:56:44.787Z,986.37
2017-12-26T10:57:44.786Z,986.43
2017-12-26T10:58:44.786Z,986.40
2017-12-26T10:59:44.786Z,986.34
2017-12-26T11:00:44.784Z,986.42
2017-12-26T11:01:44.783Z,986.41
2017-12-26T11:02:44.783Z,986.39
2017-12-26T11:03:44.783Z,986.39
2017-12-26T11:04:44.780Z,986.39
2017-12-26T11:05:44.781Z,986.36
2017-12-26T11:06:44.780Z,986.37
2017-12-26T11:07:44.778Z,986.35
2017-12-26T11:08:44.777Z,986.36
2017-12-26T11:09:44.777Z,986.35
2017-12-26T11:10:44.777Z,986.40
2017-12-26T11:11:44.776Z,986.40
2017-12-26T11:12:44.775Z,986.38
2017-12-26T11:13:44.774Z,986.39
2017-12-26T11:14:44.773Z,986.42
2017-12-26T11:15:44.773Z,986.41
2017-12-26T11:16:44.771Z,986.41
2017-12-26T11:17:44.770Z,986.35
2017-12-26T11:18:44.771Z,986.39
2017-12-26T11:19:44.793Z,986.35
2017-12-26T11:20:44.769Z,986.39
2017-12-26T11:21:44.771Z,986.40
2017-12-26T11:22:44.767Z,986.37
2017-12-26T11:23:44.768Z,986.43
2017-12-26T11:24:44.766Z,986.46
2017-12-26T11:25:44.764Z,986.40
2017-12-26T11:26:44.763Z,986.42
2017-12-26T11:27:44.777Z,986.38
2017-12-26T11:28:44.762Z,986.38
2017-12-26T11:29:44.761Z,986.42
2017-12-26T11:30:44.761Z,986.38
2017-12-26T11:31:44.762Z,986.33
2017-12-26T11:32:44.759Z,986.39
2017-12-26T11:33:44.761Z,986.34
2017-12-26T11:34:44.759Z,986.27
2017-12-26T11:35:44.758Z,986.28
2017-12-26T11:36:44.756Z,986.26
2017-12-26T11:37:44.755Z,986.28
2017-12-26T11:38:44.755Z,986.28
2017-12-26T11:39:44.754Z,986.20
2017-12-26T11:40:44.751Z,986.16
2017-12-26T11:41:44.753Z,986.20
2017-12-26T11:42:44.752Z,986.22
2017-12-26T11:43:44.750Z,986.21
2017-12-26T11:44:44.751Z,986.19
2017-12-26T11:45:44.750Z,986.27
2017-12-26T11:46:44.748Z,986.30
2017-12-26T11:47:44.748Z,986.26
2017-12-26T11:48:44.747Z,986.21
2017-12-26T11:49:44.746Z,986.23
2017-12-26T11:50:44.746Z,986.27
2017-12-26T11:51:44.745Z,986.24
2017-12-26T11:52:44.750Z,986.26
2017-12-26T11:53:44.746Z,986.25
2017-12-26T11:54:44.742Z,986.26
2017-12-26T11:55:44.743Z,986.20
2017-12-26T11:56:44.741Z,986.26
2017-12-26T11:57:44.741Z,986.24
2017-12-26T11:58:44.741Z,986.22
2017-12-26T11:59:44.741Z,986.20
2017-12-26T12:00:44.739Z,986.21
2017-12-26T12:01:44.739Z,986.24
2017-12-26T12:02:44.738Z,986.29
2017-12-26T12:03:44.738Z,986.26
2017-12-26T12:04:44.738Z,986.17
2017-12-26T12:05:44.737Z,986.29
2017-12-26T12:06:44.736Z,986.19
2017-12-26T12:07:44.739Z,986.22
2017-12-26T12:08:44.735Z,986.25
2017-12-26T12:09:44.736Z,986.40
2017-12-26T12:10:44.742Z,986.21
2017-12-26T12:11:44.735Z,986.25
2017-12-26T12:12:44.735Z,986.33
2017-12-26T12:13:44.736Z,986.28
2017-12-26T12:14:44.735Z,986.26
2017-12-26T12:15:44.734Z,986.28
2017-12-26T12:16:44.733Z,986.27
2017-12-26T12:17:44.734Z,986.31
2017-12-26T12:18:44.733Z,986.35
2017-12-26T12:19:44.733Z,986.31
2017-12-26T12:20:44.739Z,986.29
2017-12-26T12:21:44.734Z,986.29
2017-12-26T12:22:44.734Z,986.30
2017-12-26T12:23:44.734Z,986.33
2017-12-26T12:24:44.733Z,986.18
2017-12-26T12:25:44.734Z,986.20
2017-12-26T12:26:44.733Z,986.25
2017-12-26T12:27:44.734Z,986.16
2017-12-26T12:28:44.734Z,986.23
2017-12-26T12:29:44.733Z,986.15
2017-12-26T12:30:44.733Z,986.15
2017-12-26T12:31:44.735Z,986.10
2017-12-26T12:32:44.734Z,986.07
2017-12-26T12:33:44.733Z,986.08
2017-12-26T12:34:44.733Z,986.03
2017-12-26T12:35:44.733Z,986.10
2017-12-26T12:36:44.732Z,986.08
2017-12-26T12:37:44.733Z,986.07
2017-12-26T12:38:44.733Z,986.03
2017-12-26T12:39:44.734Z,986.02
2017-12-26T12:40:44.734Z,986.07
2017-12-26T12:41:44.733Z,986.05
2017-12-26T12:42:44.733Z,986.04
2017-12-26T12:43:44.733Z,986.07
2017-12-26T12:44:44.733Z,986.07
2017-12-26T12:45:44.732Z,986.08
2017-12-26T12:46:44.733Z,986.09
2017-12-26T12:47:44.734Z,986.16
2017-12-26T12:48:44.731Z,986.10
2017-12-26T12:49:44.734Z,986.14
2017-12-26T12:50:44.732Z,986.15
2017-12-26T12:51:44.732Z,986.17
2017-12-26T12:52:44.732Z,986.19
2017-12-26T12:53:44.732Z,986.27
2017-12-26T12:54:44.732Z,986.18
2017-12-26T12:55:44.731Z,986.16
2017-12-26T12:56:44.732Z,986.21
2017-12-26T12:57:44.731Z,986.19
2017-12-26T12:58:44.731Z,986.16
2017-12-26T12:59:44.732Z,986.20
2017-12-26T13:00:44.730Z,986.25
2017-12-26T13:01:44.730Z,986.21
2017-12-26T13:02:44.730Z,986.18
2017-12-26T13:03:44.729Z,986.13
2017-12-26T13:04:44.731Z,986.19
2017-12-26T13:05:44.728Z,986.15
2017-12-26T13:06:44.728Z,986.19
2017-12-26T13:07:44.728Z,986.18
2017-12-26T13:08:44.725Z,986.17
2017-12-26T13:09:44.725Z,986.18
2017-12-26T13:10:44.725Z,986.24
2017-12-26T13:11:44.725Z,986.22
2017-12-26T13:12:44.728Z,986.18
2017-12-26T13:13:44.722Z,986.21
2017-12-26T13:14:44.721Z,986.26
2017-12-26T13:15:44.720Z,986.19
2017-12-26T13:16:44.718Z,986.23
2017-12-26T13:17:44.718Z,986.11
2017-12-26T13:18:44.718Z,986.18
2017-12-26T13:19:44.717Z,986.19
2017-12-26T13:20:44.716Z,986.16
2017-12-26T13:21:44.713Z,986.14
2017-12-26T13:22:44.714Z,986.12
2017-12-26T13:23:44.713Z,986.08
2017-12-26T13:24:44.710Z,986.12
2017-12-26T13:25:44.713Z,986.15
2017-12-26T13:26:44.709Z,986.06
2017-12-26T13:27:44.710Z,986.06
2017-12-26T13:28:44.708Z,986.08
2017-12-26T13:29:44.706Z,986.09
2017-12-26T13:30:44.705Z,986.04
2017-12-26T13:31:44.712Z,986.03
2017-12-26T13:32:44.711Z,986.08
2017-12-26T13:33:44.702Z,986.02
2017-12-26T13:34:44.701Z,986.02
2017-12-26T13:35:44.698Z,986.04
2017-12-26T13:36:44.695Z,986.00
2017-12-26T13:37:44.696Z,985.97
2017-12-26T13:38:44.696Z,986.04
2017-12-26T13:39:44.694Z,985.96
2017-12-26T13:40:44.692Z,986.01
2017-12-26T13:41:44.691Z,986.03
2017-12-26T13:42:44.691Z,985.98
2017-12-26T13:43:44.692Z,986.01
2017-12-26T13:44:44.687Z,985.99
2017-12-26T13:45:44.693Z,985.97
2017-12-26T13:46:44.685Z,986.01
2017-12-26T13:47:44.686Z,986.01
2017-12-26T13:48:44.684Z,986.02
2017-12-26T13:49:44.682Z,985.96
2017-12-26T13:50:44.682Z,986.01
2017-12-26T13:51:44.681Z,986.03
2017-12-26T13:52:44.679Z,985.99
2017-12-26T13:53:44.677Z,986.04
2017-12-26T13:54:44.677Z,986.02
2017-12-26T13:55:44.676Z,986.09
2017-12-26T13:56:44.673Z,986.01
2017-12-26T13:57:44.674Z,985.97
2017-12-26T13:58:44.672Z,986.02
2017-12-26T13:59:44.671Z,986.01
2017-12-26T14:00:44.670Z,986.03
2017-12-26T14:01:44.669Z,986.01
2017-12-26T14:02:44.668Z,985.94
2017-12-26T14:03:44.667Z,985.96
2017-12-26T14:04:44.668Z,985.97
2017-12-26T14:05:44.665Z,986.02
2017-12-26T14:06:44.664Z,985.99
2017-12-26T14:07:44.664Z,985.99
2017-12-26T14:08:44.662Z,985.94
2017-12-26T14:09:44.661Z,985.99
2017-12-26T14:10:44.660Z,985.96
2017-12-26T14:11:44.659Z,985.91
2017-12-26T14:12:44.658Z,985.97
2017-12-26T14:13:44.656Z,986.00
2017-12-26T14:14:44.655Z,985.91
2017-12-26T14:15:44.655Z,985.93
2017-12-26T14:16:44.653Z,985.91
2017-12-26T14:17:44.653Z,985.82
2017-12-26T14:18:44.652Z,985.89
2017-12-26T14:19:44.651Z,985.85
2017-12-26T14:20:44.649Z,985.80
2017-12-26T14:21:44.647Z,985.85
2017-12-26T14:22:44.647Z,985.88
2017-12-26T14:23:44.647Z,985.83
2017-12-26T14:24:44.645Z,985.85
2017-12-26T14:25:44.643Z,985.81
2017-12-26T14:26:44.642Z,985.80
2017-12-26T14:27:44.641Z,985.88
2017-12-26T14:28:44.647Z,985.84
2017-12-26T14:29:44.639Z,985.88
2017-12-26T14:30:44.638Z,985.87
2017-12-26T14:31:44.638Z,985.88
2017-12-26T14:32:44.635Z,985.93
2017-12-26T14:33:44.634Z,985.89
2017-12-26T14:34:44.634Z,985.90
2017-12-26T14:35:44.639Z,985.89
2017-12-26T14:36:44.631Z,985.90
2017-12-26T14:37:44.629Z,985.88
2017-12-26T14:38:44.629Z,985.89
2017-12-26T14:39:44.628Z,985.89
2017-12-26T14:40:44.627Z,985.88
2017-12-26T14:41:44.625Z,985.89
2017-12-26T14:42:44.625Z,985.89
2017-12-26T14:43:44.671Z,985.90
2017-12-26T14:44:44.622Z,985.88
2017-12-26T14:45:44.620Z,985.89
2017-12-26T14:46:44.621Z,985.92
2017-12-26T14:47:44.620Z,985.93
2017-12-26T14:48:44.618Z,985.91
2017-12-26T14:49:44.617Z,985.91
2017-12-26T14:50:44.616Z,985.88
2017-12-26T14:51:44.616Z,985.90
2017-12-26T14:52:44.614Z,985.90
2017-12-26T14:53:44.612Z,985.86
2017-12-26T14:54:44.611Z,985.84
2017-12-26T14:55:44.610Z,985.88
2017-12-26T14:56:44.613Z,985.88
2017-12-26T14:57:44.608Z,985.88
2017-12-26T14:58:44.608Z,985.89
2017-12-26T14:59:44.606Z,985.84
2017-12-26T15:00:44.604Z,985.87
2017-12-26T15:01:44.603Z,985.85
2017-12-26T15:02:44.603Z,985.87
2017-12-26T15:03:44.601Z,985.88
2017-12-26T15:04:44.599Z,985.85
2017-12-26T15:05:44.599Z,985.86
2017-12-26T15:06:44.597Z,985.85
2017-12-26T15:07:44.596Z,985.85
2017-12-26T15:08:44.594Z,985.83
2017-12-26T15:09:44.593Z,985.87
2017-12-26T15:10:44.591Z,985.87
2017-12-26T15:11:44.591Z,985.90
2017-12-26T15:12:44.589Z,985.88
2017-12-26T15:13:44.588Z,985.90
2017-12-26T15:14:44.587Z,985.92
2017-12-26T15:15:44.589Z,985.89
2017-12-26T15:16:44.587Z,985.92
2017-12-26T15:17:44.583Z,985.90
2017-12-26T15:18:44.582Z,985.92
2017-12-26T15:19:44.581Z,985.96
2017-12-26T15:20:44.579Z,985.89
2017-12-26T15:21:44.578Z,985.84
2017-12-26T15:22:44.577Z,985.86
2017-12-26T15:23:44.576Z,985.83
2017-12-26T15:24:44.575Z,985.80
2017-12-26T15:25:44.572Z,985.78
2017-12-26T15:26:44.572Z,985.81
2017-12-26T15:27:44.569Z,985.82
2017-12-26T15:28:44.567Z,985.78
2017-12-26T15:29:44.566Z,985.75
2017-12-26T15:30:44.561Z,985.75
2017-12-26T15:31:44.560Z,985.80
2017-12-26T15:32:44.555Z,985.78
2017-12-26T15:33:44.552Z,985.74
2017-12-26T15:34:44.550Z,985.72
2017-12-26T20:56:51.973Z,980.64
2017-12-26T20:57:51.949Z,980.62
2017-12-26T20:58:51.941Z,980.60
2017-12-26T20:59:51.934Z,980.64
2017-12-26T21:00:51.924Z,980.65
2017-12-26T21:01:51.918Z,980.63
2017-12-26T21:02:51.909Z,980.56
2017-12-26T21:03:51.912Z,980.55
2017-12-26T21:04:51.896Z,980.49
2017-12-26T21:05:51.890Z,980.42
2017-12-26T21:06:51.884Z,980.37
2017-12-26T21:07:51.877Z,980.27
2017-12-26T21:08:51.869Z,980.32
2017-12-26T21:09:51.864Z,980.32
2017-12-26T21:10:51.857Z,980.23
2017-12-26T21:11:51.848Z,980.28
2017-12-26T21:12:51.842Z,980.22
2017-12-26T21:13:51.836Z,980.17
2017-12-26T21:14:51.828Z,980.12
2017-12-26T21:15:51.822Z,980.10
2017-12-26T21:16:51.814Z,980.11
2017-12-26T21:17:51.807Z,980.03
2017-12-26T21:18:51.798Z,980.04
2017-12-26T21:19:51.792Z,979.99
2017-12-26T21:20:51.784Z,979.99
2017-12-26T21:21:51.777Z,980.00
2017-12-26T21:22:51.772Z,979.98
2017-12-26T21:23:51.760Z,979.93
2017-12-26T21:24:51.752Z,979.91
2017-12-26T21:25:51.745Z,979.89
2017-12-26T21:26:51.736Z,979.93
2017-12-26T21:27:51.728Z,979.82
2017-12-26T21:28:51.719Z,979.78
2017-12-26T21:29:51.711Z,979.81
2017-12-26T21:30:51.702Z,979.67
2017-12-26T21:31:51.707Z,979.74
2017-12-26T21:32:51.686Z,979.63
2017-12-26T21:33:51.677Z,979.59
2017-12-26T21:34:51.668Z,979.56
2017-12-26T21:35:51.659Z,979.52
2017-12-26T21:36:51.652Z,979.49
2017-12-26T21:37:51.641Z,979.44
2017-12-26T21:38:51.632Z,979.41
2017-12-26T21:39:51.624Z,979.34
2017-12-26T21:40:51.617Z,979.37
2017-12-26T21:41:51.606Z,979.30
2017-12-26T21:42:51.598Z,979.31
2017-12-26T21:43:51.587Z,979.30
2017-12-26T21:44:51.580Z,979.31
2017-12-26T21:45:51.570Z,979.32
2017-12-26T21:46:51.564Z,979.32
2017-12-26T21:47:51.552Z,979.28
2017-12-26T21:48:51.542Z,979.23
2017-12-26T21:49:51.539Z,979.19
2017-12-26T21:50:51.523Z,979.19
2017-12-26T21:51:51.515Z,979.19
2017-12-26T21:52:51.506Z,979.11
2017-12-26T21:53:51.495Z,979.11
2017-12-26T21:54:51.485Z,979.13
2017-12-26T21:55:51.476Z,979.03
2017-12-26T21:57:51.458Z,979.08
2017-12-26T21:58:51.448Z,979.04
2017-12-26T21:59:51.439Z,979.03
2017-12-26T22:00:51.430Z,978.98
2017-12-26T22:01:51.420Z,978.95
2017-12-26T22:02:51.421Z,978.98
2017-12-26T22:03:51.402Z,978.93
2017-12-26T22:04:51.392Z,978.97
2017-12-26T22:05:51.383Z,978.93
2017-12-26T22:06:51.372Z,978.87
2017-12-26T22:07:51.362Z,978.80
2017-12-26T22:08:51.353Z,978.73
2017-12-26T22:09:51.345Z,978.68
2017-12-26T22:10:51.334Z,978.59
2017-12-26T22:11:51.324Z,978.52
2017-12-26T22:12:51.321Z,978.45
2017-12-26T22:13:51.305Z,978.37
2017-12-26T22:14:51.296Z,978.33
2017-12-26T22:15:51.286Z,978.28
2017-12-26T22:16:51.282Z,978.33
2017-12-26T22:17:51.270Z,978.26
2017-12-26T22:18:51.259Z,978.21
2017-12-26T22:19:51.248Z,978.25
2017-12-26T22:20:51.238Z,978.21
2017-12-26T22:21:51.229Z,978.19
2017-12-26T22:22:51.218Z,978.11
2017-12-26T22:23:51.210Z,978.12
2017-12-26T22:24:51.201Z,978.13
2017-12-26T22:25:51.192Z,978.07
2017-12-26T22:26:51.182Z,978.05
2017-12-26T22:27:51.173Z,978.06
2017-12-26T22:28:51.164Z,978.08
2017-12-26T22:29:51.154Z,978.04
2017-12-26T22:30:51.144Z,978.18
2017-12-26T22:31:51.134Z,978.14
2017-12-26T22:32:51.124Z,978.17
2017-12-26T22:33:51.115Z,978.09
2017-12-26T22:34:51.106Z,978.10
2017-12-26T22:35:51.103Z,978.15
2017-12-26T22:36:51.085Z,978.06
2017-12-26T22:37:51.076Z,978.04
2017-12-26T22:38:51.066Z,978.05
2017-12-26T22:39:51.057Z,977.91
2017-12-26T22:40:51.047Z,977.95
2017-12-26T22:41:51.038Z,977.94
2017-12-26T22:42:51.027Z,977.97
2017-12-26T22:43:51.018Z,977.92
2017-12-26T22:44:51.009Z,978.00
2017-12-26T22:45:50.999Z,977.81
2017-12-26T22:46:50.988Z,977.77
2017-12-26T22:47:50.980Z,977.75
2017-12-26T22:48:50.973Z,977.74
2017-12-26T22:49:50.961Z,977.67
2017-12-26T22:50:50.951Z,977.66
2017-12-26T22:51:50.941Z,977.67
2017-12-26T22:52:50.935Z,977.65
2017-12-26T22:53:50.922Z,977.61
2017-12-26T22:54:50.912Z,977.70
2017-12-26T22:55:50.902Z,977.66
2017-12-26T22:56:50.893Z,977.68
2017-12-26T22:57:50.884Z,977.63
2017-12-26T22:58:50.873Z,977.63
2017-12-26T22:59:50.879Z,977.60
2017-12-26T23:00:50.855Z,977.60
2017-12-26T23:01:50.845Z,977.58
2017-12-26T23:02:50.834Z,977.59
2017-12-26T23:03:50.826Z,977.57
2017-12-26T23:04:50.816Z,977.50
2017-12-26T23:05:50.807Z,977.63
2017-12-26T23:06:50.796Z,977.45
2017-12-26T23:07:50.789Z,977.44
2017-12-26T23:08:50.780Z,977.46
2017-12-26T23:09:50.769Z,977.44
2017-12-26T23:10:50.758Z,977.43
2017-12-26T23:11:50.748Z,977.28
2017-12-26T23:12:50.739Z,977.30
2017-12-26T23:13:50.729Z,977.30
2017-12-26T23:14:50.719Z,977.24
2017-12-26T23:15:50.709Z,977.20
2017-12-26T23:16:50.701Z,977.19
2017-12-26T23:17:50.699Z,977.21
2017-12-26T23:18:50.683Z,977.11
2017-12-26T23:19:50.712Z,977.12
2017-12-26T23:20:50.662Z,977.05
2017-12-26T23:21:50.653Z,977.02
2017-12-26T23:22:50.643Z,976.95
2017-12-26T23:23:50.633Z,976.89
2017-12-26T23:24:50.629Z,976.91
2017-12-26T23:25:50.614Z,976.87
2017-12-26T23:26:50.604Z,976.77
2017-12-26T23:27:50.594Z,976.79
2017-12-26T23:28:50.585Z,976.74
2017-12-26T23:29:50.577Z,976.71
2017-12-26T23:30:50.565Z,976.73
2017-12-26T23:31:50.556Z,976.64
2017-12-26T23:32:50.546Z,976.61
2017-12-26T23:33:50.544Z,976.62
2017-12-26T23:34:50.527Z,976.62
2017-12-26T23:35:50.518Z,976.54
2017-12-26T23:36:50.507Z,976.57
2017-12-26T23:37:50.498Z,976.58
2017-12-26T23:38:50.488Z,976.46
2017-12-26T23:39:50.478Z,976.52
2017-12-26T23:40:50.469Z,976.51
2017-12-26T23:41:50.459Z,976.43
2017-12-26T23:42:50.449Z,976.47
2017-12-26T23:43:50.440Z,976.40
2017-12-26T23:44:50.433Z,976.44
2017-12-26T23:45:50.422Z,976.34
2017-12-26T23:46:50.411Z,976.32
2017-12-26T23:47:50.402Z,976.30
2017-12-26T23:48:50.391Z,976.27
2017-12-26T23:49:50.382Z,976.14
2017-12-26T23:50:50.373Z,976.22
2017-12-26T23:51:50.362Z,976.17
2017-12-26T23:52:50.353Z,976.21
2017-12-26T23:53:50.345Z,976.08
2017-12-26T23:54:50.333Z,976.26
2017-12-26T23:55:50.325Z,976.08
2017-12-26T23:56:50.314Z,976.06
2017-12-26T23:57:50.308Z,976.02
2017-12-26T23:58:50.295Z,975.97
2017-12-26T23:59:50.285Z,976.00
